Time;durP1;ratioP1;P1;durP2;ratioP2;P2;SDS_P1;SDS_P2;PMS_P1;PMS_P2;Temp;Humidity;BMP_temperature;BMP_pressure;BME280_temperature;BME280_humidity;BME280_pressure;Samples;Min_cycle;Max_cycle;Signal;HPM_P1;HPM_P2
2023/03/03 00:01:05;;;;;;;;;;;;;;;6.28;66.63;100169.19;4453903;32;33498;-78
2023/03/03 00:03:33;;;;;;;;;;;;;;;7.57;62.70;100169.84;4427277;32;32315;-79
2023/03/03 00:06:01;;;;;;;;;;;;;;;7.78;60.08;100161.63;4453785;32;34025;-77
2023/03/03 00:08:28;;;;;;;;;;;;;;;8.19;57.83;100160.66;4440543;32;34479;-78
2023/03/03 00:10:55;;;;;;;;;;;;;;;7.20;61.57;100162.34;4453928;32;33403;-77
2023/03/03 00:13:24;;;;;;;;;;;;;;;5.81;66.75;100166.78;4453460;32;34863;-79
2023/03/03 00:15:52;;;;;;;;;;;;;;;5.04;69.76;100171.59;4453390;32;34521;-77
2023/03/03 00:18:35;;;;;;;;;;;;;;;4.19;73.30;100173.09;4450307;32;34759;-77
2023/03/03 00:21:03;;;;;;;;;;;;;;;4.48;73.18;100167.56;4446357;32;33535;-77
2023/03/03 00:23:30;;;;;;;;;;;;;;;4.43;73.41;100158.63;4453898;32;33966;-77
2023/03/03 00:25:58;;;;;;;;;;;;;;;4.32;74.44;100164.62;4453390;32;34614;-78
2023/03/03 00:28:48;;;;;;;;;;;;;;;3.98;75.47;100162.06;4453678;32;34401;-77
2023/03/03 00:31:17;;;;;;;;;;;;;;;4.47;74.04;100162.31;4453985;32;33712;-78
2023/03/03 00:33:54;;;;;;;;;;;;;;;4.47;74.20;100158.06;4453795;32;34760;-79
2023/03/03 00:36:21;;;;;;;;;;;;;;;4.44;73.92;100165.56;4452542;32;34755;-78
2023/03/03 00:38:49;;;;;;;;;;;;;;;4.43;74.22;100163.75;4453287;32;33905;-78
2023/03/03 00:41:20;;;;;;;;;;;;;;;4.19;74.80;100161.91;4453498;32;33856;-78
2023/03/03 00:43:47;;;;;;;;;;;;;;;4.38;75.41;100164.19;4439676;32;34365;-78
2023/03/03 00:46:17;;;;;;;;;;;;;;;4.80;72.92;100166.47;4453214;32;33897;-78
2023/03/03 00:48:44;;;;;;;;;;;;;;;4.83;72.83;100160.66;4440218;32;34375;-78
2023/03/03 00:51:21;;;;;;;;;;;;;;;5.37;69.69;100156.84;4439524;32;33582;-78
2023/03/03 00:53:49;;;;;;;;;;;;;;;4.51;72.86;100157.53;4453454;32;34814;-77
2023/03/03 00:56:16;;;;;;;;;;;;;;;4.78;72.12;100150.06;4438592;32;33894;-78
2023/03/03 00:58:45;;;;;;;;;;;;;;;4.76;72.94;100150.75;4427628;32;35524;-78
2023/03/03 01:01:13;;;;;;;;;;;;;;;5.25;70.91;100147.50;4453411;32;32977;-78
2023/03/03 01:03:41;;;;;;;;;;;;;;;5.29;70.29;100148.59;4446390;32;34950;-77
2023/03/03 01:06:09;;;;;;;;;;;;;;;4.39;73.43;100143.78;4452752;32;34205;-78
2023/03/03 01:08:36;;;;;;;;;;;;;;;3.73;76.98;100143.94;4449212;32;34361;-77
2023/03/03 01:11:05;;;;;;;;;;;;;;;4.21;75.35;100144.97;4453794;32;34076;-77
2023/03/03 01:13:33;;;;;;;;;;;;;;;4.34;74.83;100137.41;4442932;32;34192;-78
2023/03/03 01:16:04;;;;;;;;;;;;;;;4.91;72.98;100134.78;4438129;32;34231;-78
2023/03/03 01:18:31;;;;;;;;;;;;;;;4.50;74.39;100131.75;4439896;32;34769;-77
2023/03/03 01:20:59;;;;;;;;;;;;;;;4.91;72.73;100126.22;4451647;32;33291;-78
2023/03/03 01:23:27;;;;;;;;;;;;;;;4.40;75.16;100132.75;4453669;32;34235;-78
2023/03/03 01:25:54;;;;;;;;;;;;;;;3.77;77.72;100134.78;4452924;32;34708;-77
2023/03/03 01:28:21;;;;;;;;;;;;;;;4.00;77.16;100133.97;4450522;32;34401;-77
2023/03/03 01:30:49;;;;;;;;;;;;;;;4.03;76.77;100122.28;4443888;32;33444;-78
2023/03/03 01:33:17;;;;;;;;;;;;;;;4.03;76.67;100124.84;4436053;32;34603;-77
2023/03/03 01:35:45;;;;;;;;;;;;;;;4.05;77.25;100131.00;4441873;32;34144;-77
2023/03/03 01:38:13;;;;;;;;;;;;;;;4.30;76.71;100117.44;4438461;32;34424;-78
2023/03/03 01:40:40;;;;;;;;;;;;;;;3.99;78.02;100127.97;4453272;32;33522;-78
2023/03/03 01:43:07;;;;;;;;;;;;;;;3.96;77.87;100120.06;4445902;32;33790;-79
2023/03/03 01:45:41;;;;;;;;;;;;;;;3.60;79.02;100120.69;4437261;32;33853;-78
2023/03/03 01:48:09;;;;;;;;;;;;;;;3.69;79.75;100117.16;4432192;32;175714;-77
2023/03/03 01:50:39;;;;;;;;;;;;;;;3.86;77.93;100112.44;4437811;32;33618;-77
2023/03/03 01:53:09;;;;;;;;;;;;;;;3.86;79.08;100109.88;4453367;32;34217;-77
2023/03/03 01:55:37;;;;;;;;;;;;;;;4.68;75.60;100104.00;4438181;32;34132;-77
2023/03/03 01:58:06;;;;;;;;;;;;;;;5.56;71.44;100108.53;4439115;32;33828;-78
2023/03/03 02:00:34;;;;;;;;;;;;;;;5.55;71.02;100111.87;4434845;32;33270;-78
2023/03/03 02:03:03;;;;;;;;;;;;;;;5.41;72.10;100110.03;4435983;32;34177;-78
2023/03/03 02:05:30;;;;;;;;;;;;;;;5.15;73.06;100113.34;4436618;32;35174;-79
2023/03/03 02:07:57;;;;;;;;;;;;;;;5.42;72.03;100109.25;4419739;32;33755;-79
2023/03/03 02:10:25;;;;;;;;;;;;;;;5.56;71.74;100108.53;4436946;32;33089;-78
2023/03/03 02:12:53;;;;;;;;;;;;;;;6.03;69.96;100108.37;4435737;32;33845;-78
2023/03/03 02:15:24;;;;;;;;;;;;;;;5.46;71.82;100116.38;4439478;32;34942;-78
2023/03/03 02:17:53;;;;;;;;;;;;;;;4.76;74.45;100108.00;4427077;32;34271;-77
2023/03/03 02:20:20;;;;;;;;;;;;;;;4.84;74.67;100103.44;4439554;32;33712;-77
2023/03/03 02:23:08;;;;;;;;;;;;;;;5.43;72.83;100100.78;4449395;32;34046;-78
2023/03/03 02:25:41;;;;;;;;;;;;;;;4.80;75.05;100102.31;4427490;32;34723;-78
2023/03/03 02:28:08;;;;;;;;;;;;;;;4.90;75.62;100102.19;4453637;32;35242;-77
2023/03/03 02:30:36;;;;;;;;;;;;;;;5.48;72.76;100099.41;4454210;32;33237;-78
2023/03/03 02:33:03;;;;;;;;;;;;;;;5.67;72.40;100096.44;4435777;32;34915;-79
2023/03/03 02:35:34;;;;;;;;;;;;;;;5.76;72.11;100097.06;4450251;32;34045;-77
2023/03/03 02:38:10;;;;;;;;;;;;;;;5.25;73.84;100100.34;4444653;32;34541;-78
2023/03/03 02:40:39;;;;;;;;;;;;;;;5.24;74.25;100096.91;4438603;32;33628;-79
2023/03/03 02:43:07;;;;;;;;;;;;;;;5.70;72.29;100092.41;4423737;32;33842;-78
2023/03/03 02:45:40;;;;;;;;;;;;;;;5.49;73.49;100096.06;4435715;32;34093;-78
2023/03/03 02:48:07;;;;;;;;;;;;;;;5.86;72.14;100083.16;4434263;32;34308;-77
2023/03/03 02:50:34;;;;;;;;;;;;;;;5.81;71.94;100094.78;4451868;32;33005;-78
2023/03/03 02:53:02;;;;;;;;;;;;;;;5.71;71.67;100089.03;4439352;32;34132;-78
2023/03/03 02:55:29;;;;;;;;;;;;;;;5.23;74.30;100081.37;4426795;32;33461;-77
2023/03/03 02:57:57;;;;;;;;;;;;;;;5.15;75.00;100083.41;4426552;32;34555;-78
2023/03/03 03:00:24;;;;;;;;;;;;;;;5.49;74.00;100080.63;4441045;32;33570;-78
2023/03/03 03:02:52;;;;;;;;;;;;;;;5.51;73.49;100076.50;4446461;32;34845;-78
2023/03/03 03:05:19;;;;;;;;;;;;;;;5.32;74.40;100082.91;4449423;32;33795;-78
2023/03/03 03:07:46;;;;;;;;;;;;;;;5.43;74.86;100075.09;4444814;32;34957;-78
2023/03/03 03:10:14;;;;;;;;;;;;;;;5.68;73.88;100073.41;4447819;32;33697;-77
2023/03/03 03:12:41;;;;;;;;;;;;;;;5.91;72.92;100061.22;4435990;32;34376;-78
2023/03/03 03:15:08;;;;;;;;;;;;;;;5.82;73.30;100061.50;4446320;32;34084;-77
2023/03/03 03:17:37;;;;;;;;;;;;;;;6.14;72.38;100057.63;4441211;32;34263;-77
2023/03/03 03:20:05;;;;;;;;;;;;;;;6.38;71.36;100060.94;4451006;32;33410;-77
2023/03/03 03:22:32;;;;;;;;;;;;;;;6.27;71.35;100062.78;4439379;32;32672;-78
2023/03/03 03:25:00;;;;;;;;;;;;;;;6.31;71.48;100058.75;4447221;32;33883;-78
2023/03/03 03:27:28;;;;;;;;;;;;;;;5.93;73.58;100054.50;4444397;32;35232;-77
2023/03/03 03:29:56;;;;;;;;;;;;;;;6.40;71.59;100054.22;4450054;32;33292;-77
2023/03/03 03:32:24;;;;;;;;;;;;;;;6.88;69.72;100057.28;4445181;32;33561;-78
2023/03/03 03:34:51;;;;;;;;;;;;;;;7.06;69.17;100050.69;4449431;32;33737;-78
2023/03/03 03:37:20;;;;;;;;;;;;;;;6.29;71.17;100052.62;4446568;32;34685;-76
2023/03/03 03:39:47;;;;;;;;;;;;;;;6.05;72.79;100044.19;4438883;32;33361;-76
2023/03/03 03:42:16;;;;;;;;;;;;;;;7.57;68.37;100042.59;4448233;32;33496;-76
2023/03/03 03:44:44;;;;;;;;;;;;;;;7.15;68.13;100039.22;4445572;32;34876;-77
2023/03/03 03:47:13;;;;;;;;;;;;;;;6.61;70.03;100043.53;4442097;32;34169;-78
2023/03/03 03:49:41;;;;;;;;;;;;;;;6.09;72.51;100041.03;4449666;32;33623;-77
2023/03/03 03:52:08;;;;;;;;;;;;;;;5.83;73.27;100046.94;4439324;32;34200;-78
2023/03/03 03:54:35;;;;;;;;;;;;;;;5.89;73.27;100037.97;4437621;32;34128;-77
2023/03/03 03:57:03;;;;;;;;;;;;;;;6.04;73.14;100032.97;4442963;32;34360;-77
2023/03/03 03:59:30;;;;;;;;;;;;;;;6.09;73.26;100035.88;4449574;32;33540;-78
2023/03/03 04:01:58;;;;;;;;;;;;;;;6.48;72.26;100034.13;4436790;32;34725;-78
2023/03/03 04:04:25;;;;;;;;;;;;;;;6.71;71.74;100038.19;4445660;32;34876;-77
2023/03/03 04:06:53;;;;;;;;;;;;;;;6.52;72.79;100037.78;4444674;32;32644;-77
2023/03/03 04:09:20;;;;;;;;;;;;;;;7.03;70.22;100029.91;4442423;32;33597;-77
2023/03/03 04:11:50;;;;;;;;;;;;;;;7.33;69.29;100030.00;4436770;32;33370;-77
2023/03/03 04:14:17;;;;;;;;;;;;;;;8.61;65.14;100024.59;4441858;32;34250;-78
2023/03/03 04:16:45;;;;;;;;;;;;;;;8.94;64.01;100027.28;4446925;32;34092;-78
2023/03/03 04:19:13;;;;;;;16.40;8.20;;;;;;;9.72;60.79;100015.06;4446135;32;34327;-78
2023/03/03 04:21:41;;;;;;;17.17;8.40;;;;;;;11.28;55.40;100010.47;4450174;32;33650;-78
2023/03/03 04:24:09;;;;;;;18.70;7.78;;;;;;;12.05;52.33;100011.28;4438480;32;33506;-78
2023/03/03 04:26:37;;;;;;;;;;;;;;;11.31;53.21;100010.63;4446150;32;34268;-77
2023/03/03 04:29:05;;;;;;;15.15;7.85;;;;;;;9.02;60.40;100024.31;4438720;32;34389;-77
2023/03/03 04:31:32;;;;;;;;;;;;;;;8.49;62.65;100024.81;4449201;32;34617;-76
2023/03/03 04:34:00;;;;;;;;;;;;;;;9.05;61.42;100015.84;4452372;32;34522;-77
2023/03/03 04:36:28;;;;;;;;;;;;;;;10.57;56.64;100013.28;4446538;32;34025;-77
2023/03/03 04:38:56;;;;;;;;;;;;;;;9.34;59.54;100011.34;4445123;32;33632;-76
2023/03/03 04:41:24;;;;;;;;;;;;;;;9.72;58.46;100012.47;4449677;32;33917;-78
2023/03/03 04:43:52;;;;;;;14.25;7.25;;;;;;;8.01;63.45;100018.56;4449674;32;34149;-77
2023/03/03 04:46:19;;;;;;;;;;;;;;;6.98;68.31;100020.13;4441350;32;33966;-77
2023/03/03 04:48:47;;;;;;;;;;;;;;;7.25;67.21;100020.94;4426769;32;34175;-77
2023/03/03 04:51:15;;;;;;;;;;;;;;;7.32;67.51;100017.03;4450799;32;34091;-77
2023/03/03 04:53:44;;;;;;;;;;;;;;;7.15;69.08;100016.91;4442390;32;34085;-77
2023/03/03 04:56:12;;;;;;;;;;;;;;;7.34;69.11;100018.00;4436412;32;35063;-78
2023/03/03 04:58:40;;;;;;;;;;;;;;;9.72;60.72;100009.87;4439230;32;33788;-77
2023/03/03 05:01:09;;;;;;;;;;;;;;;9.22;61.03;100015.06;4440815;32;32770;-78
2023/03/03 05:03:36;;;;;;;;;;;;;;;9.47;61.35;100008.59;4436869;32;34196;-78
2023/03/03 05:06:04;;;;;;;;;;;;;;;10.16;58.89;100014.72;4448801;32;34610;-77
2023/03/03 05:08:31;;;;;;;;;;;;;;;9.11;61.68;100023.03;4449233;32;33680;-78
2023/03/03 05:11:00;;;;;;;;;;;;;;;10.33;58.40;100012.97;4433011;32;33869;-78
2023/03/03 05:13:27;;;;;;;;;;;;;;;8.58;63.36;100021.88;4440719;32;34995;-77
2023/03/03 05:15:55;;;;;;;;;;;;;;;8.53;64.56;100015.53;4451291;32;34144;-78
2023/03/03 05:18:23;;;;;;;;;;;;;;;8.94;63.03;100019.53;4435896;32;34516;-78
2023/03/03 05:20:50;;;;;;;;;;;;;;;8.46;64.50;100020.37;4436307;32;34647;-78
2023/03/03 05:23:18;;;;;;;;;;;;;;;8.51;64.69;100022.31;4446878;32;33831;-77
2023/03/03 05:25:48;;;;;;;;;;;;;;;8.07;66.22;100019.84;4436546;32;33481;-77
2023/03/03 05:28:16;;;;;;;;;;;;;;;8.07;66.65;100019.84;4434907;32;33771;-76
2023/03/03 05:30:43;;;;;;;;;;;;;;;8.18;66.72;100012.69;4443306;32;34918;-77
2023/03/03 05:33:12;;;;;;;;;;;;;;;8.38;65.97;100029.34;4448295;32;33869;-78
2023/03/03 05:35:39;;;;;;;;;;;;;;;9.07;63.52;100021.09;4436633;32;34676;-78
2023/03/03 05:38:06;;;;;;;;;;;;;;;8.76;64.34;100025.47;4437977;32;33624;-77
2023/03/03 05:40:34;;;;;;;;;;;;;;;9.06;63.43;100025.38;4451722;32;34253;-77
2023/03/03 05:43:01;;;;;;;;;;;;;;;8.61;65.09;100032.34;4425600;32;34578;-77
2023/03/03 05:45:28;;;;;;;;;;;;;;;9.48;61.92;100023.28;4450567;32;35157;-77
2023/03/03 05:47:56;;;;;;;;;;;;;;;10.94;56.91;100025.38;4451857;32;33095;-77
2023/03/03 05:50:23;;;;;;;;;;;;;;;10.82;57.60;100025.69;4433546;32;33470;-77
2023/03/03 05:52:51;;;;;;;;;;;;;;;11.67;54.36;100023.47;4452765;32;34122;-78
2023/03/03 05:55:18;;;;;;;;;;;;;;;11.81;54.08;100024.94;4438628;32;33906;-77
2023/03/03 05:57:46;;;;;;;;;;;;;;;10.93;55.57;100034.00;4452962;32;33609;-77
2023/03/03 06:00:13;;;;;;;;;;;;;;;10.03;57.95;100033.03;4452165;32;34910;-77
2023/03/03 06:02:41;;;;;;;;;;;;;;;10.65;56.76;100042.16;4437966;32;34201;-77
2023/03/03 06:05:09;;;;;;;;;;;;;;;11.15;55.28;100035.00;4451279;32;35609;-77
2023/03/03 06:07:36;;;;;;;;;;;;;;;11.67;53.86;100026.94;4451340;32;33660;-77
2023/03/03 06:10:04;;;;;;;;;;;;;;;11.68;53.59;100026.13;4438098;32;33886;-77
2023/03/03 06:12:31;;;;;;;;;;;;;;;9.69;58.88;100035.56;4452732;32;34888;-77
2023/03/03 06:14:59;;;;;;;;;;;;;;;9.48;60.52;100040.50;4451129;32;33984;-77
2023/03/03 06:17:26;;;;;;;;;;;;;;;9.28;61.41;100047.22;4451951;32;34040;-75
2023/03/03 06:19:53;;;;;;;;;;;;;;;9.13;62.39;100039.50;4450028;32;34283;-77
2023/03/03 06:22:21;;;;;;;;;;;;;;;9.43;62.31;100048.03;4448823;32;34661;-78
2023/03/03 06:24:48;;;;;;;;;;;;;;;10.53;58.82;100046.75;4451007;32;34974;-78
2023/03/03 06:27:15;;;;;;;;;;;;;;;11.24;56.57;100042.28;4438209;32;34096;-78
2023/03/03 06:29:43;;;;;;;;;;;;;;;11.58;55.34;100048.19;4449200;32;33987;-77
2023/03/03 06:32:13;;;;;;;;;;;;;;;9.61;60.14;100054.16;4426385;32;32271;-78
2023/03/03 06:34:43;;;;;;;;;;;;;;;10.12;59.28;100042.94;4438724;32;34753;-77
2023/03/03 06:37:10;;;;;;;;;;;;;;;10.16;59.00;100047.44;4450591;32;33246;-78
2023/03/03 06:39:38;;;;;;;;;;;;;;;10.70;57.62;100048.44;4450220;32;33722;-77
2023/03/03 06:42:06;;;;;;;;;;;;;;;10.74;57.57;100047.78;4451559;32;33935;-77
2023/03/03 06:44:33;;;;;;;;;;;;;;;10.70;57.80;100050.13;4448117;32;34951;-77
2023/03/03 06:47:00;;;;;;;;;;;;;;;11.38;55.97;100054.19;4432197;32;33173;-78
2023/03/03 06:49:28;;;;;;;;;;;;;;;11.53;55.64;100053.97;4441374;32;34269;-77
2023/03/03 06:51:55;;;;;;;;;;;;;;;12.36;53.73;100048.09;4446259;32;33882;-77
2023/03/03 06:54:26;;;;;;;;;;;;;;;12.33;53.74;100052.28;4453666;32;34469;-77
2023/03/03 06:56:58;;;;;;;;;;;;;;;12.17;54.04;100055.97;4447090;32;34223;-78
2023/03/03 06:59:26;;;;;;;;;;;;;;;11.92;54.48;100054.91;4437242;32;34770;-77
2023/03/03 07:01:53;;;;;;;;;;;;;;;12.15;53.58;100060.19;4438611;32;33753;-77
2023/03/03 07:04:33;;;;;;;;;;;;;;;12.47;52.80;100058.03;4451043;32;34260;-78
2023/03/03 07:07:20;;;;;;;;;;;;;;;12.49;52.66;100065.06;4438304;32;33583;-78
2023/03/03 07:09:48;;;;;;;;;;;;;;;12.66;52.10;100068.38;4454232;32;33747;-78
2023/03/03 07:12:18;;;;;;;;;;;;;;;12.93;51.42;100067.69;4454126;32;34618;-78
2023/03/03 07:14:46;;;;;;;;;;;;;;;13.08;50.98;100065.69;4454374;32;35260;-77
2023/03/03 07:17:17;;;;;;;;;;;;;;;13.36;50.27;100069.38;4431330;32;34070;-79
2023/03/03 07:19:45;;;;;;;;;;;;;;;13.07;50.49;100070.84;4437850;32;35100;-77
2023/03/03 07:22:14;;;;;;;;;;;;;;;12.61;51.56;100072.47;4452450;32;33920;-77
2023/03/03 07:24:46;;;;;;;;;;;;;;;12.25;52.99;100074.47;4440597;32;34265;-78
2023/03/03 07:27:23;;;;;;;;;;;;;;;11.98;54.12;100075.94;4445912;32;33300;-77
2023/03/03 07:29:52;;;;;;;;;;;;;;;12.30;53.74;100084.19;4453367;32;34914;-78
2023/03/03 07:32:39;;;;;;;;;;;;;;;12.08;54.18;100086.72;4453469;32;32908;-78
2023/03/03 07:35:25;;;;;;;;;;;;;;;12.32;53.64;100087.78;4452873;32;34958;-78
2023/03/03 07:37:53;;;;;;;;;;;;;;;11.98;54.61;100091.50;4452389;32;32968;-77
2023/03/03 07:40:28;;;;;;;;;;;;;;;11.74;55.43;100090.38;4440180;32;33835;-77
2023/03/03 07:42:55;;;;;;;;;;;;;;;12.61;53.51;100092.38;4439282;32;35057;-78
2023/03/03 07:45:25;;;;;;;;;;;;;;;12.87;52.66;100083.06;4449242;32;34020;-77
2023/03/03 07:47:56;;;;;;;;;;;;;;;13.09;52.15;100093.47;4437093;32;33374;-78
2023/03/03 07:50:23;;;;;;;;;;;;;;;12.94;52.54;100095.47;4442518;32;33154;-78
2023/03/03 07:52:55;;;;;;;;;;;;;;;13.53;51.08;100091.72;4453970;32;34250;-78
2023/03/03 07:55:23;;;;;;;;;;;;;;;14.31;47.73;100087.53;4430567;32;33655;-76
2023/03/03 07:57:50;;;;;;;;;;;;;;;12.50;52.65;100092.84;4452378;32;33258;-77
2023/03/03 08:00:17;;;;;;;;;;;;;;;12.98;51.88;100094.78;4446590;32;33902;-77
2023/03/03 08:02:48;;;;;;;;;;;;;;;12.67;52.52;100101.34;4444998;32;34823;-78
2023/03/03 08:05:28;;;;;;;;;;;;;;;11.86;55.11;100101.31;4446843;32;33409;-77
2023/03/03 08:08:01;;;;;;;;;;;;;;;11.43;57.03;100094.19;4444794;32;34361;-78
2023/03/03 08:10:36;;;;;;;;;;;;;;;11.82;56.76;100096.81;4449285;32;33907;-77
2023/03/03 08:13:16;;;;;;;;;;;;;;;11.84;56.11;100091.66;4438869;32;33937;-77
2023/03/03 08:15:43;;;;;;;;;;;;;;;12.06;55.80;100090.97;4445848;32;34541;-78
2023/03/03 08:18:16;;;;;;;;;;;;;;;11.68;56.50;100090.09;4425056;32;34114;-78
2023/03/03 08:20:44;;;;;;;;;;;;;;;11.38;57.58;100095.69;4436129;32;33704;-79
2023/03/03 08:23:12;;;;;;;;;;;;;;;10.82;59.46;100095.66;4445502;32;34236;-78
2023/03/03 08:25:41;;;;;;;33.70;17.25;;;;;;;10.90;58.89;100090.84;4438079;32;33728;-77
2023/03/03 08:28:11;;;;;;;33.63;17.90;;;;;;;10.45;61.64;100089.47;4451608;32;33134;-77
2023/03/03 08:30:39;;;;;;;34.60;16.30;;;;;;;10.12;62.94;100094.69;4452044;32;33181;-78
2023/03/03 08:33:06;;;;;;;32.72;17.62;;;;;;;11.48;58.74;100097.87;4453123;32;33886;-78
2023/03/03 08:35:34;;;;;;;33.78;15.45;;;;;;;11.89;57.54;100091.09;4452271;32;34808;-79
2023/03/03 08:38:02;;;;;;;25.37;13.43;;;;;;;11.53;57.71;100091.22;4449315;32;34382;-78
2023/03/03 08:40:31;;;;;;;25.05;12.93;;;;;;;11.30;59.04;100091.84;4452229;32;33924;-79
2023/03/03 08:42:58;;;;;;;29.75;14.68;;;;;;;10.26;63.32;100093.72;4449380;32;34640;-77
2023/03/03 08:45:26;;;;;;;32.05;13.57;;;;;;;10.38;63.49;100093.47;4453052;32;34260;-77
2023/03/03 08:47:54;;;;;;;28.38;14.25;;;;;;;11.29;60.78;100090.06;4452127;32;33771;-78
2023/03/03 08:50:22;;;;;;;25.23;12.65;;;;;;;11.35;59.29;100090.34;4437938;32;31887;-78
2023/03/03 08:52:50;;;;;;;24.77;13.00;;;;;;;11.13;60.81;100094.53;4452336;32;33551;-78
2023/03/03 08:55:17;;;;;;;25.58;13.40;;;;;;;10.23;63.20;100098.72;4446601;32;34208;-79
2023/03/03 08:57:45;;;;;;;28.20;12.43;;;;;;;10.24;64.09;100096.22;4452913;32;34597;-78
2023/03/03 09:00:16;;;;;;;21.67;11.18;;;;;;;10.21;64.61;100095.19;4452953;32;33716;-78
2023/03/03 09:02:44;;;;;;;22.73;11.82;;;;;;;10.20;62.80;100089.13;4453035;32;33391;-78
2023/03/03 09:05:12;;;;;;;26.15;11.95;;;;;;;10.82;61.62;100087.87;4452962;32;34078;-77
2023/03/03 09:07:40;;;;;;;;;;;;;;;11.04;60.74;100094.09;4439269;32;33429;-79
2023/03/03 09:10:07;;;;;;;;;;;;;;;11.51;59.39;100098.03;4438271;32;33982;-79
2023/03/03 09:12:38;;;;;;;;;;;;;;;11.47;59.85;100090.91;4438956;32;33753;-79
2023/03/03 09:15:14;;;;;;;;;;;;;;;12.57;56.57;100093.97;4452442;32;34201;-79
2023/03/03 09:17:43;;;;;;;18.67;10.27;;;;;;;12.41;56.51;100089.84;4452655;32;33276;-78
2023/03/03 09:20:20;;;;;;;;;;;;;;;12.45;55.96;100088.28;4451500;32;34543;-81
2023/03/03 09:22:47;;;;;;;;;;;;;;;11.03;60.18;100092.34;4453046;32;34301;-79
2023/03/03 09:25:22;;;;;;;;;;;;;;;11.39;59.76;100087.97;4453167;32;34391;-78
2023/03/03 09:27:51;;;;;;;;;;;;;;;10.87;61.56;100095.88;4439487;32;34664;-79
2023/03/03 09:30:25;;;;;;;20.58;10.02;;;;;;;11.11;60.44;100085.81;4435521;32;34537;-78
2023/03/03 09:32:52;;;;;;;;;;;;;;;11.00;60.60;100085.28;4453408;32;34481;-78
2023/03/03 09:35:39;;;;;;;24.65;10.38;;;;;;;10.54;62.30;100084.75;4438908;32;34580;-78
2023/03/03 09:38:28;;;;;;;20.35;10.07;;;;;;;12.90;55.19;100085.75;4451944;32;33819;-78
2023/03/03 09:41:14;;;;;;;;;;;;;;;11.02;60.33;100096.62;4452906;32;33585;-78
2023/03/03 09:44:00;;;;;;;;;;;;;;;10.72;61.19;100097.72;4452798;32;34900;-78
2023/03/03 09:46:28;;;;;;;;;;;;;;;11.23;59.84;100094.97;4429922;32;34072;-79
2023/03/03 09:48:56;;;;;;;;;;;;;;;11.90;56.06;100087.69;4451616;32;34196;-78
2023/03/03 09:51:23;;;;;;;;;;;;;;;11.24;56.57;100096.75;4449918;32;34518;-77
2023/03/03 09:53:53;;;;;;;;;;;;;;;10.67;59.17;100102.69;4450516;32;34206;-78
2023/03/03 09:56:24;;;;;;;;;;;;;;;11.77;56.79;100093.12;4442665;32;34354;-79
2023/03/03 09:58:55;;;;;;;;;;;;;;;11.64;56.83;100085.59;4438711;32;34204;-77
2023/03/03 10:01:41;;;;;;;;;;;;;;;11.03;58.52;100087.16;4447018;32;34230;-79
2023/03/03 10:04:20;;;;;;;;;;;;;;;10.82;59.65;100085.31;4445605;32;34638;-79
2023/03/03 10:07:08;;;;;;;;;;;;;;;11.32;58.56;100085.00;4441828;32;34881;-78
2023/03/03 10:09:35;;;;;;;;;;;;;;;11.12;58.62;100084.09;4449594;32;37142;-78
2023/03/03 10:12:08;;;;;;;32.03;17.70;;;;;;;12.37;55.90;100075.84;4439841;32;33565;-78
2023/03/03 10:14:57;;;;;;;34.42;19.98;;;;;;;15.51;48.08;100071.41;4451228;32;34731;-78
2023/03/03 10:17:35;;;;;;;26.80;13.90;;;;;;;15.28;47.40;100064.63;4442374;32;33625;-78
2023/03/03 10:20:16;;;;;;;21.62;12.13;;;;;;;16.71;43.99;100064.16;4449065;32;33476;-79
2023/03/03 10:22:55;;;;;;;14.00;7.60;;;;;;;14.30;47.31;100065.81;4443691;32;33508;-78
2023/03/03 10:25:41;;;;;;;18.00;8.52;;;;;;;12.52;52.62;100069.53;4437851;32;34701;-78
2023/03/03 10:28:37;;;;;;;24.30;12.48;;;;;;;12.46;53.08;100077.03;4438560;32;34719;-78
2023/03/03 10:31:43;;;;;;;12.68;7.28;;;;;;;14.13;49.26;100066.97;4451836;32;33256;-78
2023/03/03 10:34:37;;;;;;;17.25;8.82;;;;;;;12.90;51.71;100057.16;4451861;32;33393;-79
2023/03/03 10:37:12;;;;;;;18.02;8.98;;;;;;;15.40;45.68;100045.81;4437705;32;34570;-80
2023/03/03 10:39:56;;;;;;;16.23;8.35;;;;;;;15.42;45.94;100042.41;4450089;32;34266;-78
2023/03/03 10:42:42;;;;;;;18.17;8.63;;;;;;;13.98;48.49;100046.47;4442130;32;33433;-78
2023/03/03 10:45:36;;;;;;;15.20;8.55;;;;;;;14.50;48.61;100048.22;4436248;32;33554;-78
2023/03/03 10:48:35;;;;;;;13.43;8.13;;;;;;;13.85;48.81;100045.16;4446429;32;34726;-80
2023/03/03 10:51:21;;;;;;;16.42;9.02;;;;;;;14.66;46.19;100038.31;4446387;32;33844;-78
2023/03/03 10:54:08;;;;;;;16.95;9.48;;;;;;;14.03;47.51;100037.09;4438238;32;33568;-79
2023/03/03 10:56:53;;;;;;;15.77;8.25;;;;;;;13.91;48.76;100040.16;4445718;32;34601;-78
2023/03/03 10:59:45;;;;;;;15.57;7.97;;;;;;;14.30;47.50;100034.53;4446055;32;33882;-77
2023/03/03 11:02:28;;;;;;;17.50;9.63;;;;;;;13.06;50.86;100038.75;4431451;32;34584;-78
2023/03/03 11:05:04;;;;;;;15.63;8.20;;;;;;;15.19;45.98;100027.81;4439882;32;33624;-78
2023/03/03 11:07:41;;;;;;;16.65;7.90;;;;;;;14.43;47.62;100019.28;4443498;32;33992;-76
2023/03/03 11:10:34;;;;;;;14.63;7.20;;;;;;;15.19;46.43;100019.97;4439162;32;32447;-79
2023/03/03 11:13:09;;;;;;;;;;;;;;;15.39;47.03;100023.16;4417496;32;34006;-79
2023/03/03 11:15:49;;;;;;;20.33;10.50;;;;;;;15.79;46.36;100019.97;4440065;32;33480;-78
2023/03/03 11:18:38;;;;;;;18.92;11.02;;;;;;;15.41;46.43;100026.69;4438354;32;32027;-82
2023/03/03 11:21:14;;;;;;;;;;;;;;;16.80;43.02;100010.28;4454314;32;33562;-79
2023/03/03 11:23:42;;;;;;;;;;;;;;;16.03;44.81;100008.38;4439791;32;33942;-78
2023/03/03 11:26:37;;;;;;;25.30;13.15;;;;;;;17.07;42.43;99992.63;4452503;32;34168;-79
2023/03/03 11:29:29;;;;;;;18.67;9.77;;;;;;;17.62;40.73;99995.47;4435987;32;33754;-78
2023/03/03 11:31:57;;;;;;;14.52;7.68;;;;;;;17.94;39.72;99996.94;4442199;32;33596;-79
2023/03/03 11:34:43;;;;;;;;;;;;;;;16.57;41.97;99997.53;4450682;32;34369;-79
2023/03/03 11:37:13;;;;;;;;;;;;;;;17.03;41.29;99988.16;4451247;32;33603;-79
2023/03/03 11:39:40;;;;;;;;;;;;;;;14.81;46.13;99996.22;4439285;32;34945;-79
2023/03/03 11:42:07;;;;;;;;;;;;;;;17.26;40.85;99974.66;4438588;32;34125;-78
2023/03/03 11:44:35;;;;;;;;;;;;;;;17.56;39.45;99978.72;4454318;32;34473;-79
2023/03/03 11:47:08;;;;;;;14.40;6.43;;;;;;;17.52;39.91;99977.81;4446592;32;33427;-78
2023/03/03 11:49:46;;;;;;;;;;;;;;;17.35;39.92;99972.25;4436143;32;34410;-79
2023/03/03 11:52:32;;;;;;;14.65;7.18;;;;;;;17.16;40.02;99977.94;4427553;32;34281;-79
2023/03/03 11:55:01;;;;;;;;;;;;;;;16.02;43.14;99972.66;4448911;32;33669;-79
2023/03/03 11:57:31;;;;;;;;;;;;;;;13.75;47.79;99980.56;4427236;32;33680;-79
2023/03/03 12:00:14;;;;;;;;;;;;;;;14.63;46.86;99971.34;4439400;32;33068;-78
2023/03/03 12:02:42;;;;;;;;;;;;;;;14.36;47.75;99974.81;4452317;32;34165;-79
2023/03/03 12:05:24;;;;;;;;;;;;;;;13.59;48.96;99973.94;4454186;32;34272;-80
2023/03/03 12:08:20;;;;;;;15.85;7.80;;;;;;;16.22;44.14;99968.81;4437030;32;33362;-80
2023/03/03 12:10:51;;;;;;;;;;;;;;;18.04;38.55;99962.16;4446473;32;33672;-79
2023/03/03 12:13:51;;;;;;;;;;;;;;;17.62;39.47;99950.06;4438723;32;34171;-79
2023/03/03 12:16:39;;;;;;;;;;;;;;;15.16;46.60;99946.81;4414130;32;34631;-79
2023/03/03 12:19:23;;;;;;;;;;;;;;;14.34;46.97;99953.03;4449888;32;33937;-81
2023/03/03 12:21:53;;;;;;;;;;;;;;;15.16;45.68;99946.81;4437307;32;34285;-80
2023/03/03 12:24:21;;;;;;;;;;;;;;;13.43;49.72;99956.03;4447718;32;34354;-78
2023/03/03 12:27:00;;;;;;;;;;;;;;;14.01;48.11;99949.34;4439642;32;34900;-79
2023/03/03 12:29:38;;;;;;;;;;;;;;;14.04;49.27;99946.81;4430018;32;33454;-79
2023/03/03 12:32:21;;;;;;;;;;;;;;;15.14;47.22;99932.00;4438321;32;34808;-79
2023/03/03 12:34:53;;;;;;;;;;;;;;;14.85;46.54;99935.47;4432235;32;33610;-79
2023/03/03 12:37:31;;;;;;;;;;;;;;;14.24;48.14;99935.34;4438832;32;34840;-80
2023/03/03 12:40:03;;;;;;;;;;;;;;;15.07;46.47;99927.44;4453041;32;33399;-79
2023/03/03 12:42:45;;;;;;;;;;;;;;;15.73;45.93;99931.00;4428785;32;34773;-79
2023/03/03 12:45:41;;;;;;;20.62;8.32;;;;;;;15.32;45.38;99930.75;4446633;32;34335;-80
2023/03/03 12:48:17;;;;;;;;;;;;;;;15.13;44.83;99927.63;4444542;32;34625;-80